Kapuskasing Airport
CYYU : now visible

Airfield :











YOU CAN JOIN US ON...

 
LOGIN :

Register | Disclaimer

   EN    FR    IT 

 









Legend :    VFR   Marginal VFR   IFR   Intensive IFR   Very Intensive IFR
Visi :
Ceiling :
>= 8 km
>= 3000ft
5 to 8 km
1000 to 3000 ft
1500m to 5 km
500 to 1000 ft
800 to 1500m
200 to 500 ft
< 800m
< 200 ft
Symbols :   Thunderstorms  Fog  Heavy snow  Heavy precipitations  Wind > 20 kt






- Airport Elevation : 743 ft
- IATA code : YYU


CYYU - Kapuskasing

CURRENT METAR :
  • 191800Z 32013KT 3SM -SN BKN018 OVC028 M20/M26 A3036 RMK SN1SC4SC3 SLP309

EXPIRED METARs :
  • 191738Z 29011KT 250V310 6SM -SN OVC024 M20/M26 A3037 RMK SC8 SLP310
  • 191700Z 31009KT 15SM BKN028 M21/M27 A3037 RMK SC6 SLP310
  • 191600Z 29013KT 260V320 15SM BKN029 M22/M28 A3037 RMK SC6 SLP310

TAF TAF CYYU
Valid from the 19 at 14:00 until the 20 at 02:00 UTC


191338Z 1914/2002 34010KT P6SM SCT020
TEMPO 1914/2002 5SM -SN BKN020
BECMG 1914/1916 32010G20KT RMK NXT FCST BY 192000Z



MET'MAP, your aeronautical weather chart ! - Copyright ORBIFLY December 2007 - Disclaimer

ORBIFLY MET'MAP TEAM :

Programming & Development : Alexandra Zaïnal
Concept & original design : Baudouin d'Aumeries
Assistance for programming : Marc-Olivier Méhu
Technical & hardware support : Manuel Goepfert

Contact : metmap@orbifly.com




SOURCES & CREDITS :

   NOAA       Earth
Advisory